createdAt,value
2022-09-23T00:02:18.639Z,5.38
2022-09-23T00:04:49.074Z,7.40
2022-09-23T00:07:19.217Z,4.18
2022-09-23T00:09:49.317Z,5.97
2022-09-23T00:12:19.324Z,6.38
2022-09-23T00:14:49.326Z,7.13
2022-09-23T00:17:19.242Z,5.25
2022-09-23T00:19:49.523Z,4.93
2022-09-23T00:22:20.271Z,4.30
2022-09-23T00:24:50.378Z,5.43
2022-09-23T00:27:22.690Z,6.65
2022-09-23T00:29:52.636Z,4.75
2022-09-23T00:32:23.116Z,7.65
2022-09-23T00:34:53.880Z,8.52
2022-09-23T00:37:23.970Z,8.98
2022-09-23T00:39:53.928Z,5.93
2022-09-23T00:42:24.914Z,9.00
2022-09-23T00:44:56.691Z,6.88
2022-09-23T00:47:38.039Z,9.18
2022-09-23T00:50:28.312Z,6.30
2022-09-23T00:52:59.989Z,6.28
2022-09-23T00:55:51.041Z,7.20
2022-09-23T00:58:25.265Z,5.20
2022-09-23T01:00:55.875Z,6.95
2022-09-23T01:03:25.826Z,5.95
2022-09-23T01:05:55.998Z,5.47
2022-09-23T01:08:25.959Z,5.93
2022-09-23T01:11:24.249Z,4.47
2022-09-23T01:14:05.135Z,4.90
2022-09-23T01:16:38.006Z,6.63
2022-09-23T01:19:28.115Z,4.68
2022-09-23T01:22:02.410Z,6.50
2022-09-23T01:24:47.555Z,5.82
2022-09-23T01:27:35.722Z,3.58
2022-09-23T01:30:18.429Z,6.13
2022-09-23T01:33:07.096Z,5.15
2022-09-23T01:35:44.233Z,4.97
2022-09-23T01:38:30.106Z,7.32
2022-09-23T01:41:06.331Z,5.55
2022-09-23T01:43:58.584Z,4.90
2022-09-23T01:46:41.787Z,7.95
2022-09-23T01:49:22.255Z,9.57
2022-09-23T01:52:16.887Z,7.70
2022-09-23T01:55:12.426Z,19.58
2022-09-23T01:58:16.456Z,9.18
2022-09-23T02:00:55.034Z,10.40
2022-09-23T02:03:41.847Z,13.65
2022-09-23T02:06:39.472Z,12.32
2022-09-23T02:09:15.784Z,10.50
2022-09-23T02:11:47.545Z,10.95
2022-09-23T02:14:20.034Z,14.85
2022-09-23T02:16:52.410Z,13.07
2022-09-23T02:19:41.411Z,13.07
2022-09-23T02:22:17.697Z,12.25
2022-09-23T02:24:47.953Z,14.38
2022-09-23T02:27:35.829Z,14.48
2022-09-23T02:30:28.256Z,18.30
2022-09-23T02:33:05.356Z,13.50
2022-09-23T02:35:38.260Z,14.02
2022-09-23T02:41:06.184Z,12.73
2022-09-23T02:43:41.640Z,9.63
2022-09-23T02:46:11.825Z,14.48
2022-09-23T02:48:44.795Z,15.07
2022-09-23T02:53:44.739Z,9.02
2022-09-23T02:56:20.826Z,14.38
2022-09-23T02:58:53.044Z,9.27
2022-09-23T03:01:40.383Z,17.10
2022-09-23T03:04:19.646Z,11.75
2022-09-23T03:07:26.909Z,13.75
2022-09-23T03:09:58.500Z,10.73
2022-09-23T03:12:59.203Z,11.32
2022-09-23T03:15:58.475Z,11.98
2022-09-23T03:18:48.449Z,13.45
2022-09-23T03:21:27.345Z,15.90
2022-09-23T03:23:58.510Z,12.65
2022-09-23T03:26:33.371Z,11.93
2022-09-23T03:29:10.538Z,12.90
2022-09-23T03:31:41.338Z,10.02
2022-09-23T03:34:21.928Z,10.07
2022-09-23T03:37:01.751Z,11.88
2022-09-23T03:39:44.512Z,12.80
2022-09-23T03:42:27.935Z,14.82
2022-09-23T03:45:02.475Z,12.70
2022-09-23T03:47:32.816Z,15.23
2022-09-23T03:50:02.908Z,15.45
2022-09-23T03:52:32.898Z,13.98
2022-09-23T03:55:02.796Z,12.27
2022-09-23T03:57:33.048Z,14.73
2022-09-23T04:00:03.264Z,11.63
2022-09-23T04:02:41.804Z,12.85
2022-09-23T04:05:12.250Z,16.05
2022-09-23T04:07:42.393Z,10.65
2022-09-23T04:10:12.489Z,13.32
2022-09-23T04:12:42.424Z,13.52
2022-09-23T04:15:12.865Z,13.38
2022-09-23T04:17:43.117Z,16.65
2022-09-23T04:20:13.164Z,14.27
2022-09-23T04:22:43.084Z,16.90
2022-09-23T04:25:13.135Z,16.95
2022-09-23T04:27:43.129Z,16.45
2022-09-23T04:30:15.193Z,11.65
2022-09-23T04:32:45.096Z,11.00
2022-09-23T04:35:15.106Z,17.70
2022-09-23T04:37:45.094Z,18.15
2022-09-23T04:40:15.152Z,14.32
2022-09-23T04:42:45.171Z,22.38
2022-09-23T04:45:15.193Z,21.02
2022-09-23T04:47:45.244Z,16.42
2022-09-23T04:50:15.552Z,15.60
2022-09-23T04:52:45.834Z,16.60
2022-09-23T04:55:15.790Z,18.45
2022-09-23T04:57:45.838Z,15.07
2022-09-23T05:00:19.452Z,11.88
2022-09-23T05:02:50.413Z,10.68
2022-09-23T05:05:22.206Z,11.93
2022-09-23T05:07:52.782Z,14.65
2022-09-23T05:10:22.833Z,10.15
2022-09-23T05:12:56.913Z,11.40
2022-09-23T05:15:27.703Z,12.57
2022-09-23T05:18:00.373Z,19.42
2022-09-23T05:20:30.388Z,12.45
2022-09-23T05:23:00.337Z,12.52
2022-09-23T05:25:31.217Z,10.68
2022-09-23T05:30:32.696Z,14.10
2022-09-23T05:33:03.916Z,9.70
2022-09-23T05:35:33.956Z,13.73
2022-09-23T05:38:03.925Z,14.45
2022-09-23T05:40:33.965Z,12.40
2022-09-23T05:43:04.129Z,11.35
2022-09-23T05:45:34.051Z,11.90
2022-09-23T05:48:04.153Z,11.20
2022-09-23T05:50:34.130Z,8.88
2022-09-23T05:53:04.091Z,10.93
2022-09-23T05:55:34.050Z,11.73
2022-09-23T05:58:04.049Z,10.02
2022-09-23T06:00:33.997Z,10.25
2022-09-23T06:03:04.139Z,11.98
2022-09-23T06:05:34.171Z,8.82
2022-09-23T06:08:04.265Z,9.50
2022-09-23T06:10:44.433Z,7.10
2022-09-23T06:13:14.412Z,9.20
2022-09-23T06:15:47.242Z,16.13
2022-09-23T06:18:18.397Z,11.52
2022-09-23T06:20:49.179Z,18.05
2022-09-23T06:23:19.809Z,21.48
2022-09-23T06:25:50.376Z,18.30
2022-09-23T06:28:21.128Z,17.15
2022-09-23T06:30:51.741Z,18.83
2022-09-23T06:33:32.370Z,21.25
2022-09-23T06:36:07.398Z,18.63
2022-09-23T06:38:40.008Z,19.52
2022-09-23T06:41:10.266Z,21.70
2022-09-23T06:43:40.314Z,24.33
2022-09-23T06:46:10.896Z,20.55
2022-09-23T06:48:45.903Z,22.73
2022-09-23T06:51:20.390Z,22.10
2022-09-23T06:53:50.673Z,21.27
2022-09-23T06:56:22.244Z,23.60
2022-09-23T06:58:53.659Z,16.95
2022-09-23T07:01:24.430Z,21.38
2022-09-23T07:03:55.356Z,16.77
2022-09-23T07:06:25.308Z,15.45
2022-09-23T07:08:55.327Z,7.88
2022-09-23T07:11:25.340Z,14.10
2022-09-23T07:13:55.371Z,9.85
2022-09-23T07:16:25.389Z,7.45
2022-09-23T07:18:55.425Z,51.65
2022-09-23T07:21:25.531Z,59.17
2022-09-23T07:23:56.375Z,38.67
2022-09-23T07:26:26.540Z,42.40
2022-09-23T07:29:05.842Z,35.67
2022-09-23T07:31:39.505Z,25.20
2022-09-23T07:34:12.529Z,22.50
2022-09-23T07:36:42.505Z,22.10
2022-09-23T07:39:13.475Z,27.77
2022-09-23T07:41:45.531Z,17.02
2022-09-23T07:44:15.508Z,9.18
2022-09-23T07:46:45.512Z,17.67
2022-09-23T07:49:15.517Z,22.75
2022-09-23T07:51:48.369Z,17.80
2022-09-23T07:54:19.441Z,16.85
2022-09-23T07:56:49.489Z,17.77
2022-09-23T07:59:21.332Z,18.25
2022-09-23T08:01:53.694Z,15.98
2022-09-23T08:04:29.440Z,13.90
2022-09-23T08:07:04.113Z,15.65
2022-09-23T08:09:42.773Z,15.88
2022-09-23T08:12:16.998Z,12.50
2022-09-23T08:14:46.913Z,10.15
2022-09-23T08:17:17.123Z,10.32
2022-09-23T08:19:47.107Z,15.30
2022-09-23T08:22:17.489Z,15.82
2022-09-23T08:24:47.491Z,16.38
2022-09-23T08:27:17.452Z,9.15
2022-09-23T08:29:48.107Z,9.90
2022-09-23T08:32:18.046Z,8.32
2022-09-23T08:34:47.990Z,7.63
2022-09-23T08:37:17.896Z,10.07
2022-09-23T08:39:47.847Z,6.80
2022-09-23T08:42:28.784Z,9.40
2022-09-23T08:45:00.380Z,14.40
2022-09-23T08:48:02.106Z,18.40
2022-09-23T08:50:53.435Z,14.77
2022-09-23T08:53:37.416Z,11.50
2022-09-23T08:56:13.800Z,16.30
2022-09-23T08:59:36.409Z,16.30
2022-09-23T09:02:22.165Z,14.52
2022-09-23T09:05:01.925Z,13.75
2022-09-23T09:07:37.906Z,11.30
2022-09-23T09:10:08.627Z,13.43
2022-09-23T09:13:05.323Z,17.73
2022-09-23T09:15:56.584Z,15.50
2022-09-23T09:18:26.650Z,17.13
2022-09-23T09:21:12.272Z,19.17
2022-09-23T09:23:59.049Z,13.90
2022-09-23T09:26:33.688Z,15.57
2022-09-23T09:29:42.482Z,17.63
2022-09-23T09:32:59.677Z,15.68
2022-09-23T09:35:37.779Z,15.57
2022-09-23T09:38:07.930Z,12.63
2022-09-23T09:40:48.348Z,21.90
2022-09-23T09:43:27.520Z,15.35
2022-09-23T09:46:15.967Z,29.25
2022-09-23T09:48:58.291Z,17.23
2022-09-23T09:51:29.631Z,17.33
2022-09-23T09:54:19.277Z,17.08
2022-09-23T09:56:49.919Z,23.95
2022-09-23T09:59:30.273Z,16.10
2022-09-23T10:02:30.443Z,24.55
2022-09-23T10:05:05.372Z,20.65
2022-09-23T10:07:36.487Z,17.52
2022-09-23T10:10:33.419Z,16.58
2022-09-23T10:13:17.442Z,15.40
2022-09-23T10:15:49.431Z,25.13
2022-09-23T10:18:39.491Z,24.90
2022-09-23T10:21:16.375Z,23.50
2022-09-23T10:23:51.273Z,22.50
2022-09-23T10:26:29.303Z,30.35
2022-09-23T10:29:00.836Z,22.25
2022-09-23T10:31:35.013Z,28.67
2022-09-23T10:34:28.822Z,41.15
2022-09-23T10:37:11.198Z,24.63
2022-09-23T10:39:59.264Z,27.08
2022-09-23T10:42:59.674Z,25.60
2022-09-23T10:45:51.541Z,26.08
2022-09-23T10:48:45.702Z,23.20
2022-09-23T10:51:28.268Z,22.05
2022-09-23T10:54:19.633Z,22.95
2022-09-23T10:57:03.461Z,21.95
2022-09-23T10:59:56.411Z,16.95
2022-09-23T11:02:42.158Z,18.08
2022-09-23T11:05:31.741Z,20.90
2022-09-23T11:08:19.573Z,20.83
2022-09-23T11:11:35.269Z,20.98
2022-09-23T11:14:41.477Z,33.08
2022-09-23T11:17:16.025Z,21.73
2022-09-23T11:19:57.156Z,44.05
2022-09-23T11:22:38.602Z,36.05
2022-09-23T11:25:40.499Z,29.70
2022-09-23T11:28:30.613Z,32.55
2022-09-23T11:31:15.699Z,24.85
2022-09-23T11:34:09.355Z,24.52
2022-09-23T11:36:48.540Z,19.33
2022-09-23T11:39:24.965Z,25.40
2022-09-23T11:41:55.856Z,27.10
2022-09-23T11:44:34.272Z,19.83
2022-09-23T11:47:10.731Z,22.35
2022-09-23T11:49:54.618Z,17.35
2022-09-23T11:52:33.649Z,21.65
2022-09-23T11:55:22.508Z,17.75
2022-09-23T11:57:57.273Z,14.02
2022-09-23T12:00:29.668Z,18.27
2022-09-23T12:03:16.736Z,20.70
2022-09-23T12:05:52.534Z,15.30
2022-09-23T12:08:26.814Z,20.75
2022-09-23T12:11:21.280Z,13.60
2022-09-23T12:14:06.773Z,14.77
2022-09-23T12:16:54.936Z,14.88
2022-09-23T12:19:30.806Z,13.98
2022-09-23T12:22:25.866Z,13.50
2022-09-23T12:25:27.813Z,16.25
2022-09-23T12:27:57.938Z,10.77
2022-09-23T12:30:29.983Z,15.73
2022-09-23T12:33:28.854Z,10.15
2022-09-23T12:36:07.796Z,12.32
2022-09-23T12:38:39.023Z,18.75
2022-09-23T12:41:36.515Z,11.10
2022-09-23T12:44:13.731Z,12.88
2022-09-23T12:46:47.620Z,11.77
2022-09-23T12:49:30.368Z,14.85
2022-09-23T12:52:18.511Z,13.10
2022-09-23T12:54:49.659Z,10.98
2022-09-23T12:57:38.042Z,14.13
2022-09-23T13:00:14.515Z,9.07
2022-09-23T13:02:45.223Z,11.73
2022-09-23T13:05:45.666Z,9.10
2022-09-23T13:08:24.128Z,13.88
2022-09-23T13:11:03.803Z,8.48
2022-09-23T13:13:37.225Z,11.60
2022-09-23T13:16:19.985Z,8.10
2022-09-23T13:21:46.144Z,11.55
2022-09-23T13:24:32.377Z,11.77
2022-09-23T13:27:17.458Z,7.53
2022-09-23T13:29:53.407Z,12.82
2022-09-23T13:32:24.389Z,9.40
2022-09-23T13:35:06.747Z,6.75
2022-09-23T13:37:49.948Z,6.63
2022-09-23T13:43:06.419Z,7.60
2022-09-23T13:45:39.164Z,8.50
2022-09-23T13:48:13.511Z,8.85
2022-09-23T13:50:51.035Z,7.40
2022-09-23T13:53:31.519Z,6.45
2022-09-23T13:56:11.356Z,7.57
2022-09-23T13:58:41.541Z,7.75
2022-09-23T14:01:34.485Z,7.25
2022-09-23T14:04:07.907Z,9.85
2022-09-23T14:06:37.873Z,7.03
2022-09-23T14:09:08.093Z,5.80
2022-09-23T14:11:38.426Z,7.53
2022-09-23T14:14:08.689Z,10.02
2022-09-23T14:16:40.046Z,6.15
2022-09-23T14:19:15.446Z,6.30
2022-09-23T14:21:45.439Z,9.43
2022-09-23T14:24:27.002Z,8.38
2022-09-23T14:26:58.913Z,6.18
2022-09-23T14:29:38.959Z,4.83
2022-09-23T14:32:27.358Z,10.30
2022-09-23T14:35:06.229Z,6.93
2022-09-23T14:37:56.933Z,11.10
2022-09-23T14:40:40.269Z,6.47
2022-09-23T14:43:29.104Z,6.95
2022-09-23T14:46:01.610Z,9.52
2022-09-23T14:51:16.087Z,7.22
2022-09-23T14:53:48.291Z,8.20
2022-09-23T14:56:33.576Z,6.30
2022-09-23T14:59:03.658Z,7.40
2022-09-23T15:01:33.812Z,7.72
2022-09-23T15:04:13.206Z,5.93
2022-09-23T15:06:47.834Z,7.10
2022-09-23T15:09:25.274Z,6.50
2022-09-23T15:12:09.303Z,7.22
2022-09-23T15:14:43.633Z,7.82
2022-09-23T15:17:27.021Z,9.13
2022-09-23T15:19:58.963Z,6.20
2022-09-23T15:22:32.918Z,8.30
2022-09-23T15:25:37.969Z,7.03
2022-09-23T15:28:15.330Z,10.23
2022-09-23T15:30:45.947Z,7.35
2022-09-23T15:33:18.947Z,9.52
2022-09-23T15:35:49.861Z,9.32
2022-09-23T15:38:20.177Z,7.93
2022-09-23T15:40:50.666Z,11.98
2022-09-23T15:43:23.715Z,6.97
2022-09-23T15:45:54.624Z,7.22
2022-09-23T15:48:32.945Z,6.35
2022-09-23T15:51:05.496Z,5.88
2022-09-23T15:53:35.666Z,8.75
2022-09-23T15:56:06.366Z,6.45
2022-09-23T15:58:36.394Z,5.38
2022-09-23T16:01:06.994Z,7.35
2022-09-23T16:03:37.042Z,5.85
2022-09-23T16:06:07.523Z,7.10
2022-09-23T16:08:42.321Z,6.50
2022-09-23T16:13:45.525Z,8.82
2022-09-23T16:16:15.862Z,7.20
2022-09-23T16:18:45.823Z,7.78
2022-09-23T16:21:16.225Z,5.72
2022-09-23T16:23:48.683Z,8.00
2022-09-23T16:26:20.030Z,7.22
2022-09-23T16:28:50.866Z,7.47
2022-09-23T16:31:21.671Z,8.80
2022-09-23T16:33:52.531Z,5.93
2022-09-23T16:36:24.363Z,7.05
2022-09-23T16:38:57.807Z,6.93
2022-09-23T16:41:37.532Z,7.47
2022-09-23T16:44:10.441Z,7.43
2022-09-23T16:46:43.916Z,7.85
2022-09-23T16:49:15.081Z,7.03
2022-09-23T16:51:45.037Z,5.28
2022-09-23T16:54:15.400Z,7.65
2022-09-23T16:56:46.232Z,7.32
2022-09-23T16:59:16.680Z,8.75
2022-09-23T17:02:04.869Z,9.40
2022-09-23T17:04:35.077Z,6.63
2022-09-23T17:07:04.998Z,6.97
2022-09-23T17:09:34.953Z,8.10
2022-09-23T17:12:22.046Z,9.18
2022-09-23T17:14:53.615Z,8.90
2022-09-23T17:17:23.563Z,8.95
2022-09-23T17:19:53.510Z,7.15
2022-09-23T17:22:23.561Z,6.25
2022-09-23T17:24:53.616Z,7.15
2022-09-23T17:27:23.865Z,5.20
2022-09-23T17:29:53.742Z,8.73
2022-09-23T17:32:23.641Z,6.55
2022-09-23T17:34:53.670Z,7.50
2022-09-23T17:37:23.651Z,5.90
2022-09-23T17:39:53.557Z,4.70
2022-09-23T17:42:23.530Z,7.07
2022-09-23T17:44:53.525Z,5.03
2022-09-23T17:47:24.050Z,4.97
2022-09-23T17:49:55.616Z,9.82
2022-09-23T17:52:25.609Z,5.45
2022-09-23T17:54:56.233Z,5.47
2022-09-23T17:57:26.086Z,7.13
2022-09-23T17:59:57.244Z,5.85
2022-09-23T18:02:27.261Z,6.05
2022-09-23T18:04:57.264Z,5.50
2022-09-23T18:07:27.257Z,5.70
2022-09-23T18:09:57.256Z,6.05
2022-09-23T18:12:27.310Z,6.93
2022-09-23T18:14:57.218Z,6.00
2022-09-23T18:17:27.099Z,7.07
2022-09-23T18:19:57.028Z,6.65
2022-09-23T18:22:26.946Z,4.85
2022-09-23T18:24:56.873Z,6.70
2022-09-23T18:27:26.857Z,5.43
2022-09-23T18:29:56.934Z,5.15
2022-09-23T18:32:26.821Z,4.70
2022-09-23T18:34:56.804Z,5.20
2022-09-23T18:37:26.820Z,7.63
2022-09-23T18:39:56.783Z,4.40
2022-09-23T18:42:28.575Z,5.22
2022-09-23T18:44:59.569Z,7.25
2022-09-23T18:47:48.171Z,5.78
2022-09-23T18:50:36.343Z,5.55
2022-09-23T18:53:06.229Z,6.03
2022-09-23T18:55:37.267Z,5.80
2022-09-23T18:58:08.606Z,6.07
2022-09-23T19:00:39.032Z,5.57
2022-09-23T19:03:09.312Z,5.25
2022-09-23T19:05:39.617Z,6.35
2022-09-23T19:08:10.048Z,6.78
2022-09-23T19:10:40.605Z,4.90
2022-09-23T19:13:10.893Z,4.72
2022-09-23T19:15:41.652Z,5.72
2022-09-23T19:18:11.521Z,5.20
2022-09-23T19:20:51.108Z,5.30
2022-09-23T19:23:24.537Z,5.55
2022-09-23T19:25:54.481Z,4.68
2022-09-23T19:28:24.520Z,6.80
2022-09-23T19:30:56.284Z,5.53
2022-09-23T19:33:26.653Z,6.20
2022-09-23T19:35:57.438Z,4.28
2022-09-23T19:38:27.463Z,5.55
2022-09-23T19:40:57.428Z,4.25
2022-09-23T19:43:27.406Z,4.93
2022-09-23T19:45:57.517Z,5.40
2022-09-23T19:48:27.423Z,6.20
2022-09-23T19:50:57.301Z,5.22
2022-09-23T19:53:28.359Z,10.32
2022-09-23T19:55:59.059Z,4.80
2022-09-23T19:58:29.136Z,5.40
2022-09-23T20:00:59.057Z,5.45
2022-09-23T20:03:28.993Z,8.77
2022-09-23T20:05:59.243Z,3.80
2022-09-23T20:08:29.613Z,5.65
2022-09-23T20:10:59.506Z,4.35
2022-09-23T20:13:29.927Z,4.43
2022-09-23T20:16:00.734Z,4.18
2022-09-23T20:18:31.066Z,4.72
2022-09-23T20:21:01.504Z,5.13
2022-09-23T20:23:31.402Z,4.60
2022-09-23T20:26:20.698Z,4.68
2022-09-23T20:28:51.041Z,4.40
2022-09-23T20:31:24.930Z,4.20
2022-09-23T20:34:07.203Z,6.35
2022-09-23T20:36:38.032Z,4.40
2022-09-23T20:39:08.093Z,4.18
2022-09-23T20:41:38.755Z,5.10
2022-09-23T20:44:11.434Z,3.63
2022-09-23T20:46:45.458Z,4.30
2022-09-23T20:49:18.306Z,4.20
2022-09-23T20:51:50.112Z,3.65
2022-09-23T20:54:22.827Z,5.00
2022-09-23T20:56:52.726Z,5.10
2022-09-23T20:59:22.722Z,5.55
2022-09-23T21:01:56.602Z,6.18
2022-09-23T21:04:28.228Z,5.03
2022-09-23T21:07:02.217Z,4.82
2022-09-23T21:09:34.819Z,6.68
2022-09-23T21:12:04.862Z,6.25
2022-09-23T21:14:34.745Z,5.22
2022-09-23T21:17:04.748Z,4.38
2022-09-23T21:19:38.703Z,3.30
2022-09-23T21:22:08.709Z,4.10
2022-09-23T21:25:16.049Z,3.63
2022-09-23T21:27:28.509Z,4.30
2022-09-23T21:29:58.492Z,5.50
2022-09-23T21:32:28.418Z,3.40
2022-09-23T21:34:58.364Z,3.88
2022-09-23T21:37:28.276Z,3.92
2022-09-23T21:40:18.248Z,4.30
2022-09-23T21:42:49.050Z,5.05
2022-09-23T21:45:18.979Z,4.05
2022-09-23T21:47:48.952Z,4.28
2022-09-23T21:50:19.353Z,3.85
2022-09-23T21:52:51.551Z,4.00
2022-09-23T21:55:22.329Z,3.40
2022-09-23T21:57:52.746Z,4.68
2022-09-23T22:00:22.792Z,3.85
2022-09-23T22:02:53.839Z,3.33
2022-09-23T22:05:24.320Z,4.82
2022-09-23T22:07:55.458Z,4.32
2022-09-23T22:10:25.353Z,4.25
2022-09-23T22:12:55.246Z,3.47
2022-09-23T22:15:25.378Z,3.65
2022-09-23T22:17:55.864Z,4.53
2022-09-23T22:20:25.998Z,3.42
2022-09-23T22:22:57.091Z,5.05
2022-09-23T22:25:27.057Z,3.45
2022-09-23T22:28:15.432Z,3.28
2022-09-23T22:31:03.604Z,3.38
2022-09-23T22:33:33.547Z,4.15
2022-09-23T22:36:04.908Z,4.07
2022-09-23T22:38:34.843Z,3.60
2022-09-23T22:41:04.830Z,2.85
2022-09-23T22:43:34.961Z,3.92
2022-09-23T22:46:04.919Z,2.88
2022-09-23T22:48:34.855Z,3.90
2022-09-23T22:51:06.939Z,3.25
2022-09-23T22:53:37.303Z,3.63
2022-09-23T22:56:07.241Z,3.50
2022-09-23T22:58:37.244Z,3.35
2022-09-23T23:01:07.262Z,3.63
2022-09-23T23:03:37.466Z,4.13
2022-09-23T23:06:08.144Z,3.60
2022-09-23T23:08:38.512Z,4.35
2022-09-23T23:11:13.241Z,3.85
2022-09-23T23:13:43.331Z,4.50
2022-09-23T23:16:13.781Z,3.92
2022-09-23T23:18:44.453Z,3.58
2022-09-23T23:21:16.327Z,4.40
2022-09-23T23:23:47.900Z,3.13
2022-09-23T23:26:21.139Z,4.88
2022-09-23T23:28:51.666Z,5.45
2022-09-23T23:31:22.972Z,4.82
2022-09-23T23:33:53.150Z,4.68
2022-09-23T23:36:23.928Z,2.33
2022-09-23T23:38:53.929Z,3.67
2022-09-23T23:41:24.239Z,2.95
2022-09-23T23:43:59.418Z,3.33
2022-09-23T23:46:30.369Z,3.70
2022-09-23T23:49:00.801Z,3.85
2022-09-23T23:51:31.146Z,2.22
2022-09-23T23:54:01.791Z,3.55
2022-09-23T23:56:32.371Z,3.65
2022-09-23T23:59:05.792Z,4.35
